Time;durP1;ratioP1;P1;durP2;ratioP2;P2;SDS_P1;SDS_P2;PMS_P1;PMS_P2;Temp;Humidity;BMP_temperature;BMP_pressure;BME280_temperature;BME280_humidity;BME280_pressure;Samples;Min_cycle;Max_cycle;Signal;HPM_P1;HPM_P2
2022/07/19 00:02:07;;;;;;;5.20;4.80;;;;;;;;;;5052738;28;20537;-77
2022/07/19 00:04:35;;;;;;;6.10;4.50;;;;;;;;;;5053633;28;20534;-75
2022/07/19 00:07:02;;;;;;;7.73;5.10;;;;;;;;;;5055191;28;20536;-76
2022/07/19 00:09:29;;;;;;;5.23;4.73;;;;;;;;;;5055391;28;20438;-75
2022/07/19 00:11:57;;;;;;;6.20;5.20;;;;;;;;;;5053760;28;20448;-75
2022/07/19 00:14:24;;;;;;;6.20;4.67;;;;;;;;;;5052699;28;20539;-76
2022/07/19 00:16:51;;;;;;;5.90;4.77;;;;;;;;;;5052588;28;20934;-75
2022/07/19 00:19:19;;;;;;;7.90;5.13;;;;;;;;;;5052259;28;20476;-76
2022/07/19 00:21:46;;;;;;;6.30;4.77;;;;;;;;;;5052613;28;21150;-77
2022/07/19 00:24:13;;;;;;;5.90;5.27;;;;;;;;;;5052921;28;20466;-76
2022/07/19 00:26:40;;;;;;;5.80;5.30;;;;;;;;;;5052391;28;20440;-78
2022/07/19 00:29:08;;;;;;;5.40;4.67;;;;;;;;;;5052665;28;20595;-78
2022/07/19 00:31:35;;;;;;;5.63;5.13;;;;;;;;;;5052366;28;20449;-77
2022/07/19 00:34:02;;;;;;;7.43;5.43;;;;;;;;;;5052055;28;20465;-77
2022/07/19 00:36:30;;;;;;;6.07;5.57;;;;;;;;;;5052376;28;20453;-77
2022/07/19 00:38:57;;;;;;;5.50;5.00;;;;;;;;;;5051631;28;20882;-78
2022/07/19 00:41:24;;;;;;;6.37;5.87;;;;;;;;;;5051999;28;20449;-77
2022/07/19 00:43:51;;;;;;;6.60;5.70;;;;;;;;;;5051440;28;20461;-77
2022/07/19 00:46:19;;;;;;;5.37;4.87;;;;;;;;;;5051713;28;20945;-77
2022/07/19 00:48:46;;;;;;;6.57;5.40;;;;;;;;;;5052186;28;20492;-77
2022/07/19 00:51:15;;;;;;;5.50;5.10;;;;;;;;;;5051734;28;21002;-77
2022/07/19 00:53:43;;;;;;;5.90;5.30;;;;;;;;;;5051528;28;20984;-77
2022/07/19 00:56:12;;;;;;;7.43;5.47;;;;;;;;;;5052024;28;20945;-77
2022/07/19 00:58:40;;;;;;;6.33;5.70;;;;;;;;;;5051724;28;20594;-76
2022/07/19 01:01:08;;;;;;;5.43;5.03;;;;;;;;;;5051795;28;20445;-77
2022/07/19 01:03:36;;;;;;;7.80;6.03;;;;;;;;;;5051146;28;20477;-77
2022/07/19 01:06:04;;;;;;;5.47;5.07;;;;;;;;;;5051386;28;20445;-76
2022/07/19 01:08:31;;;;;;;6.20;5.70;;;;;;;;;;5051796;28;20441;-77
2022/07/19 01:10:59;;;;;;;6.53;5.13;;;;;;;;;;5032142;28;20496;-78
2022/07/19 01:13:26;;;;;;;6.13;5.40;;;;;;;;;;5031282;28;20532;-78
2022/07/19 01:15:53;;;;;;;5.57;5.13;;;;;;;;;;5031885;28;21020;-78
2022/07/19 01:18:20;;;;;;;6.03;5.37;;;;;;;;;;5032159;28;20486;-77
2022/07/19 01:20:47;;;;;;;7.00;5.77;;;;;;;;;;5031472;28;20500;-77
2022/07/19 01:23:16;;;;;;;5.97;5.57;;;;;;;;;;5032316;28;20880;-76
2022/07/19 01:25:43;;;;;;;5.57;4.70;;;;;;;;;;5039209;28;20519;-76
2022/07/19 01:28:10;;;;;;;5.37;5.07;;;;;;;;;;5043598;28;21154;-76
2022/07/19 01:30:37;;;;;;;6.90;5.90;;;;;;;;;;5037243;28;20472;-77
2022/07/19 01:33:05;;;;;;;5.60;5.10;;;;;;;;;;5031129;28;20467;-77
2022/07/19 01:35:32;;;;;;;7.27;5.23;;;;;;;;;;5031025;28;20500;-77
2022/07/19 01:37:59;;;;;;;5.90;4.93;;;;;;;;;;5030992;28;20470;-77
2022/07/19 01:40:27;;;;;;;5.80;5.30;;;;;;;;;;5031141;28;20473;-76
2022/07/19 01:42:54;;;;;;;6.30;5.70;;;;;;;;;;5030956;28;20462;-77
2022/07/19 01:45:22;;;;;;;5.40;5.00;;;;;;;;;;5031138;28;20453;-76
2022/07/19 01:47:49;;;;;;;7.30;5.67;;;;;;;;;;5030985;28;20442;-76
2022/07/19 01:50:18;;;;;;;6.40;5.80;;;;;;;;;;5031015;28;20446;-76
2022/07/19 01:52:45;;;;;;;5.63;5.00;;;;;;;;;;5030207;28;20467;-77
2022/07/19 01:55:12;;;;;;;5.70;4.93;;;;;;;;;;5031028;28;20442;-77
2022/07/19 01:57:40;;;;;;;6.40;5.90;;;;;;;;;;5030932;28;20443;-77
2022/07/19 02:00:08;;;;;;;9.07;5.43;;;;;;;;;;5030956;28;20501;-77
2022/07/19 02:02:35;;;;;;;6.03;5.57;;;;;;;;;;5030419;28;20474;-77
2022/07/19 02:05:03;;;;;;;5.00;4.57;;;;;;;;;;5030992;28;20907;-77
2022/07/19 02:07:30;;;;;;;6.57;5.40;;;;;;;;;;5030952;28;20447;-77
2022/07/19 02:09:57;;;;;;;5.93;5.37;;;;;;;;;;5042005;28;20442;-77
2022/07/19 02:12:25;;;;;;;5.30;4.80;;;;;;;;;;5051102;28;20473;-77
2022/07/19 02:14:53;;;;;;;6.73;5.40;;;;;;;;;;5050656;28;20520;-77
2022/07/19 02:17:20;;;;;;;5.63;5.10;;;;;;;;;;5050696;28;20518;-78
2022/07/19 02:19:47;;;;;;;5.60;5.10;;;;;;;;;;5050360;28;20523;-77
2022/07/19 02:22:14;;;;;;;5.77;5.27;;;;;;;;;;5050304;28;20491;-77
2022/07/19 02:24:42;;;;;;;6.60;5.20;;;;;;;;;;5050304;28;20438;-78
2022/07/19 02:27:09;;;;;;;5.80;5.13;;;;;;;;;;5050030;28;20445;-77
2022/07/19 02:29:36;;;;;;;6.70;5.27;;;;;;;;;;5050124;28;20491;-77
2022/07/19 02:32:05;;;;;;;6.47;5.87;;;;;;;;;;5050542;28;20460;-77
2022/07/19 02:34:32;;;;;;;5.10;4.70;;;;;;;;;;5050047;28;20510;-77
2022/07/19 02:36:59;;;;;;;6.37;4.93;;;;;;;;;;5050697;28;20937;-77
2022/07/19 02:39:26;;;;;;;5.00;4.57;;;;;;;;;;5050460;28;20488;-77
2022/07/19 02:41:53;;;;;;;6.50;5.87;;;;;;;;;;5050152;28;20438;-77
2022/07/19 02:44:20;;;;;;;6.13;5.63;;;;;;;;;;5050108;28;20473;-77
2022/07/19 02:46:47;;;;;;;6.90;6.20;;;;;;;;;;5050849;28;20536;-77
2022/07/19 02:49:15;;;;;;;9.07;5.30;;;;;;;;;;5050466;28;20442;-80
2022/07/19 02:51:42;;;;;;;6.10;5.60;;;;;;;;;;5050386;28;20446;-77
2022/07/19 02:54:09;;;;;;;7.53;5.70;;;;;;;;;;5050497;28;20833;-78
2022/07/19 02:56:36;;;;;;;7.83;5.70;;;;;;;;;;5051442;28;20441;-77
2022/07/19 02:59:04;;;;;;;5.63;5.23;;;;;;;;;;5050627;28;20556;-78
2022/07/19 03:01:31;;;;;;;10.97;5.93;;;;;;;;;;5050370;28;20481;-77
2022/07/19 03:03:59;;;;;;;7.30;5.80;;;;;;;;;;5049431;28;20535;-77
2022/07/19 03:06:27;;;;;;;7.07;6.37;;;;;;;;;;5053099;28;20449;-77
2022/07/19 03:08:54;;;;;;;12.03;6.20;;;;;;;;;;5051129;28;20450;-77
2022/07/19 03:11:21;;;;;;;6.70;5.80;;;;;;;;;;5033626;28;21055;-77
2022/07/19 03:13:48;;;;;;;6.60;6.00;;;;;;;;;;5034041;28;20454;-77
2022/07/19 03:16:15;;;;;;;7.13;6.10;;;;;;;;;;5033739;28;21152;-77
2022/07/19 03:18:42;;;;;;;10.40;5.67;;;;;;;;;;5034039;28;20909;-77
2022/07/19 03:21:09;;;;;;;6.97;5.77;;;;;;;;;;5033626;28;20517;-77
2022/07/19 03:23:38;;;;;;;9.83;6.50;;;;;;;;;;5033484;28;20462;-77
2022/07/19 03:26:06;;;;;;;7.60;5.80;;;;;;;;;;5033719;28;20519;-76
2022/07/19 03:28:33;;;;;;;6.93;6.33;;;;;;;;;;5033527;28;20434;-77
2022/07/19 03:31:00;;;;;;;10.50;6.07;;;;;;;;;;5033129;28;20519;-79
2022/07/19 03:33:27;;;;;;;6.30;5.70;;;;;;;;;;5033878;28;20969;-77
2022/07/19 03:35:54;;;;;;;7.20;5.97;;;;;;;;;;5034182;28;20445;-78
2022/07/19 03:38:21;;;;;;;10.17;6.80;;;;;;;;;;5034823;28;20479;-77
2022/07/19 03:40:50;;;;;;;7.63;6.40;;;;;;;;;;5034063;28;20458;-77
2022/07/19 03:43:17;;;;;;;6.07;5.57;;;;;;;;;;5033807;28;20501;-77
2022/07/19 03:45:44;;;;;;;6.43;5.90;;;;;;;;;;5034142;28;20450;-77
2022/07/19 03:48:11;;;;;;;6.57;5.70;;;;;;;;;;5035321;28;20438;-77
2022/07/19 03:50:39;;;;;;;7.07;5.97;;;;;;;;;;5035058;28;20508;-77
2022/07/19 03:53:06;;;;;;;6.20;5.47;;;;;;;;;;5033843;28;20573;-78
2022/07/19 03:55:33;;;;;;;8.30;5.77;;;;;;;;;;5034058;28;20450;-77
2022/07/19 03:58:01;;;;;;;6.90;6.33;;;;;;;;;;5044886;28;20461;-76
2022/07/19 04:00:28;;;;;;;6.67;6.13;;;;;;;;;;5046467;28;20442;-77
2022/07/19 04:02:55;;;;;;;6.07;5.67;;;;;;;;;;5050113;28;20497;-77
2022/07/19 04:05:22;;;;;;;6.60;6.10;;;;;;;;;;5051516;28;20461;-77
2022/07/19 04:07:51;;;;;;;7.03;5.73;;;;;;;;;;5060218;28;20506;-77
2022/07/19 04:10:18;;;;;;;8.80;6.10;;;;;;;;;;5070417;28;20456;-77
2022/07/19 04:12:45;;;;;;;7.40;6.60;;;;;;;;;;5067495;28;20603;-77
2022/07/19 04:15:13;;;;;;;6.40;5.80;;;;;;;;;;5066158;28;20510;-77
2022/07/19 04:17:40;;;;;;;6.70;5.80;;;;;;;;;;5056373;28;20484;-78
2022/07/19 04:20:07;;;;;;;7.90;6.57;;;;;;;;;;5054558;28;20485;-77
2022/07/19 04:22:34;;;;;;;11.90;6.70;;;;;;;;;;5053474;28;20469;-77
2022/07/19 04:25:02;;;;;;;7.43;6.73;;;;;;;;;;5054674;28;20515;-78
2022/07/19 04:27:30;;;;;;;7.83;6.57;;;;;;;;;;5054000;28;20541;-77
2022/07/19 04:29:57;;;;;;;10.27;6.90;;;;;;;;;;5054278;28;20441;-77
2022/07/19 04:32:26;;;;;;;7.87;7.10;;;;;;;;;;5054641;28;20457;-77
2022/07/19 04:34:53;;;;;;;6.60;6.00;;;;;;;;;;5053903;28;20446;-78
2022/07/19 04:37:20;;;;;;;6.93;6.33;;;;;;;;;;5052627;28;20437;-77
2022/07/19 04:39:47;;;;;;;9.50;6.07;;;;;;;;;;5053153;28;20531;-77
2022/07/19 04:42:14;;;;;;;9.90;5.90;;;;;;;;;;5053198;28;20995;-77
2022/07/19 04:44:41;;;;;;;6.83;6.13;;;;;;;;;;5052502;28;20441;-78
2022/07/19 04:47:08;;;;;;;6.73;6.07;;;;;;;;;;5052733;28;20512;-77
2022/07/19 04:49:37;;;;;;;6.77;6.00;;;;;;;;;;5052412;28;20437;-78
2022/07/19 04:52:04;;;;;;;7.00;6.30;;;;;;;;;;5052240;28;20453;-77
2022/07/19 04:54:31;;;;;;;9.50;6.70;;;;;;;;;;5051455;28;20507;-77
2022/07/19 04:56:58;;;;;;;7.80;6.60;;;;;;;;;;5051980;28;20442;-78
2022/07/19 04:59:25;;;;;;;6.50;5.90;;;;;;;;;;5051519;28;20481;-78
2022/07/19 05:01:52;;;;;;;7.10;6.40;;;;;;;;;;5051845;28;20940;-77
2022/07/19 05:04:19;;;;;;;7.50;6.80;;;;;;;;;;5050989;28;20489;-77
2022/07/19 05:06:49;;;;;;;7.90;6.93;;;;;;;;;;5051647;28;20491;-78
2022/07/19 05:09:18;;;;;;;6.67;6.07;;;;;;;;;;5051641;28;20446;-78
2022/07/19 05:11:45;;;;;;;10.37;6.80;;;;;;;;;;5051415;28;21159;-76
2022/07/19 05:14:12;;;;;;;7.63;6.93;;;;;;;;;;5050884;28;20522;-76
2022/07/19 05:16:40;;;;;;;10.33;8.17;;;;;;;;;;5051165;28;20445;-76
2022/07/19 05:19:07;;;;;;;10.73;7.23;;;;;;;;;;5051316;28;20492;-76
2022/07/19 05:21:34;;;;;;;10.20;6.27;;;;;;;;;;5051017;28;20442;-76
2022/07/19 05:24:02;;;;;;;8.33;6.30;;;;;;;;;;5050450;28;20984;-76
2022/07/19 05:26:30;;;;;;;6.73;6.10;;;;;;;;;;5050920;28;20503;-76
2022/07/19 05:28:57;;;;;;;9.80;6.30;;;;;;;;;;5049874;28;20818;-76
2022/07/19 05:31:25;;;;;;;6.37;5.77;;;;;;;;;;5050748;28;20445;-76
2022/07/19 05:33:52;;;;;;;6.57;5.97;;;;;;;;;;5050143;28;20563;-77
2022/07/19 05:36:19;;;;;;;8.63;6.23;;;;;;;;;;5050763;28;20464;-76
2022/07/19 05:38:46;;;;;;;6.30;5.80;;;;;;;;;;5051049;28;20510;-76
2022/07/19 05:41:16;;;;;;;8.77;6.00;;;;;;;;;;5050775;28;21275;-76
2022/07/19 05:43:43;;;;;;;7.20;6.50;;;;;;;;;;5050352;28;20465;-77
2022/07/19 05:46:10;;;;;;;6.40;5.73;;;;;;;;;;5050660;28;20464;-76
2022/07/19 05:48:37;;;;;;;31.53;14.80;;;;;;;;;;5050285;28;20477;-75
2022/07/19 05:51:04;;;;;;;16.20;7.30;;;;;;;;;;5050455;28;20469;-76
2022/07/19 05:53:31;;;;;;;6.83;5.70;;;;;;;;;;5050046;28;20461;-75
2022/07/19 05:55:58;;;;;;;6.73;5.93;;;;;;;;;;5050405;28;20446;-76
2022/07/19 05:58:27;;;;;;;7.47;6.67;;;;;;;;;;5050735;28;20449;-76
2022/07/19 06:03:39;;;;;;;6.03;5.43;;;;;;;;;;5035932;28;20449;-76
2022/07/19 06:06:06;;;;;;;9.93;6.87;;;;;;;;;;5050211;28;20843;-77
2022/07/19 06:08:33;;;;;;;5.90;5.37;;;;;;;;;;5050221;28;20544;-76
2022/07/19 06:11:00;;;;;;;6.13;5.53;;;;;;;;;;5047366;28;20477;-76
2022/07/19 06:13:28;;;;;;;8.50;5.43;;;;;;;;;;5045606;28;20462;-75
2022/07/19 06:15:55;;;;;;;6.80;5.60;;;;;;;;;;5030430;28;21116;-75
2022/07/19 06:18:23;;;;;;;6.50;5.70;;;;;;;;;;5030532;28;20446;-77
2022/07/19 06:20:50;;;;;;;6.70;5.60;;;;;;;;;;5030177;28;20489;-76
2022/07/19 06:23:17;;;;;;;10.13;6.07;;;;;;;;;;5029973;28;20475;-77
2022/07/19 06:25:45;;;;;;;6.80;5.83;;;;;;;;;;5030282;28;20871;-76
2022/07/19 06:28:12;;;;;;;8.83;6.07;;;;;;;;;;5030236;28;20454;-75
2022/07/19 06:30:40;;;;;;;10.27;6.73;;;;;;;;;;5030264;28;20454;-76
2022/07/19 06:33:07;;;;;;;7.23;5.77;;;;;;;;;;5031075;28;20473;-77
2022/07/19 06:35:34;;;;;;;11.33;6.13;;;;;;;;;;5031320;28;20500;-75
2022/07/19 06:38:01;;;;;;;6.87;6.20;;;;;;;;;;5033899;28;20468;-75
2022/07/19 06:40:28;;;;;;;8.40;6.50;;;;;;;;;;5037622;28;20512;-74
2022/07/19 06:42:55;;;;;;;10.37;7.27;;;;;;;;;;5036462;28;20466;-76
2022/07/19 06:45:22;;;;;;;11.63;9.43;;;;;;;;;;5034184;28;20446;-75
2022/07/19 06:47:51;;;;;;;13.80;9.90;;;;;;;;;;5034161;28;20686;-77
2022/07/19 06:50:18;;;;;;;9.20;8.23;;;;;;;;;;5033840;28;20442;-76
2022/07/19 06:52:45;;;;;;;9.83;7.50;;;;;;;;;;5033691;28;20493;-77
2022/07/19 06:55:12;;;;;;;14.70;8.53;;;;;;;;;;5033845;28;20528;-76
2022/07/19 06:57:39;;;;;;;10.40;8.20;;;;;;;;;;5033922;28;20461;-76
2022/07/19 07:00:08;;;;;;;12.67;8.90;;;;;;;;;;5033801;28;20879;-77
2022/07/19 07:02:35;;;;;;;9.50;7.80;;;;;;;;;;5033677;28;20478;-76
2022/07/19 07:05:03;;;;;;;11.87;7.00;;;;;;;;;;5033961;28;20941;-76
2022/07/19 07:07:30;;;;;;;9.50;7.33;;;;;;;;;;5033969;28;20492;-77
2022/07/19 07:09:57;;;;;;;12.97;7.43;;;;;;;;;;5045693;28;20905;-76
2022/07/19 07:12:24;;;;;;;8.43;6.67;;;;;;;;;;5053942;28;20442;-77
2022/07/19 07:14:51;;;;;;;14.33;7.00;;;;;;;;;;5054093;28;20932;-76
2022/07/19 07:17:18;;;;;;;11.90;9.60;;;;;;;;;;5054231;28;20442;-75
2022/07/19 07:19:46;;;;;;;9.20;7.33;;;;;;;;;;5054607;28;20508;-76
2022/07/19 07:22:14;;;;;;;7.83;6.77;;;;;;;;;;5054063;28;20897;-77
2022/07/19 07:24:41;;;;;;;6.83;6.13;;;;;;;;;;5054566;28;20937;-77
2022/07/19 07:27:08;;;;;;;6.90;5.80;;;;;;;;;;5050958;28;20456;-78
2022/07/19 07:29:35;;;;;;;7.57;5.60;;;;;;;;;;5041377;28;20446;-77
2022/07/19 07:32:02;;;;;;;6.50;5.70;;;;;;;;;;5052526;28;20446;-77
2022/07/19 07:34:29;;;;;;;8.27;5.33;;;;;;;;;;5052558;28;20460;-75
2022/07/19 07:36:56;;;;;;;10.80;4.40;;;;;;;;;;5053380;28;20922;-76
2022/07/19 07:39:25;;;;;;;5.03;4.60;;;;;;;;;;5053492;28;20457;-77
2022/07/19 07:41:52;;;;;;;5.53;4.80;;;;;;;;;;5053489;28;20445;-76
2022/07/19 07:44:19;;;;;;;8.67;5.57;;;;;;;;;;5053339;28;20477;-77
2022/07/19 07:46:46;;;;;;;5.37;4.53;;;;;;;;;;5053634;28;20540;-78
2022/07/19 07:49:13;;;;;;;4.90;4.40;;;;;;;;;;5053482;28;20903;-78
2022/07/19 07:51:40;;;;;;;4.00;3.60;;;;;;;;;;5052602;28;20472;-76
2022/07/19 07:54:07;;;;;;;6.37;3.77;;;;;;;;;;5053099;28;20503;-77
2022/07/19 07:56:35;;;;;;;6.90;4.00;;;;;;;;;;5052741;28;20457;-76
2022/07/19 07:59:02;;;;;;;4.17;3.87;;;;;;;;;;5072363;28;20445;-77
2022/07/19 08:01:30;;;;;;;6.40;4.00;;;;;;;;;;5072675;28;20469;-77
2022/07/19 08:03:57;;;;;;;5.50;4.07;;;;;;;;;;5075395;28;20496;-77
2022/07/19 08:06:25;;;;;;;4.77;4.00;;;;;;;;;;5077983;28;20442;-78
2022/07/19 08:08:52;;;;;;;5.13;3.90;;;;;;;;;;5095675;28;20463;-78
2022/07/19 08:11:19;;;;;;;7.00;4.70;;;;;;;;;;5058124;28;20434;-77
2022/07/19 08:13:47;;;;;;;4.40;4.10;;;;;;;;;;5054266;28;20462;-78
2022/07/19 08:16:16;;;;;;;4.13;3.30;;;;;;;;;;5055853;28;20441;-79
2022/07/19 08:18:43;;;;;;;3.80;3.27;;;;;;;;;;5054866;28;20541;-78
2022/07/19 08:21:10;;;;;;;5.57;3.27;;;;;;;;;;5054687;28;20489;-77
2022/07/19 08:23:37;;;;;;;2.90;2.53;;;;;;;;;;5053994;28;20469;-79
2022/07/19 08:26:04;;;;;;;6.27;2.53;;;;;;;;;;5054483;28;20445;-79
2022/07/19 08:28:31;;;;;;;3.10;2.67;;;;;;;;;;5054211;28;20534;-77
2022/07/19 08:31:00;;;;;;;2.47;2.23;;;;;;;;;;5053511;28;20445;-78
2022/07/19 08:33:27;;;;;;;2.70;2.50;;;;;;;;;;5053427;28;20462;-78
2022/07/19 08:35:54;;;;;;;2.50;2.37;;;;;;;;;;5053723;28;20480;-78
2022/07/19 08:38:21;;;;;;;4.00;2.53;;;;;;;;;;5054446;28;20472;-78
2022/07/19 08:40:51;;;;;;;2.33;2.23;;;;;;;;;;5053522;28;20703;-78
2022/07/19 08:43:20;;;;;;;2.53;2.33;;;;;;;;;;5053202;28;20473;-78
2022/07/19 08:45:48;;;;;;;2.30;2.10;;;;;;;;;;5054009;28;20444;-78
2022/07/19 08:48:17;;;;;;;3.03;2.60;;;;;;;;;;5054272;28;20450;-78
2022/07/19 08:50:45;;;;;;;4.47;2.67;;;;;;;;;;5054636;28;20447;-77
2022/07/19 08:53:13;;;;;;;2.80;2.60;;;;;;;;;;5053334;28;20462;-77
2022/07/19 08:55:40;;;;;;;2.50;2.27;;;;;;;;;;5054137;28;20441;-77
2022/07/19 08:58:06;;;;;;;2.73;2.30;;;;;;;;;;5053109;28;20442;-79
2022/07/19 09:00:34;;;;;;;4.87;2.90;;;;;;;;;;5053800;28;20507;-79
2022/07/19 09:03:02;;;;;;;3.53;3.23;;;;;;;;;;5053610;28;20546;-78
2022/07/19 09:05:31;;;;;;;3.03;2.60;;;;;;;;;;5052761;28;20457;-77
2022/07/19 09:08:07;;;;;;;3.93;3.10;;;;;;;;;;5052881;28;20444;-78
2022/07/19 09:10:35;;;;;;;3.03;2.83;;;;;;;;;;5053190;28;20510;-78
2022/07/19 09:13:03;;;;;;;3.00;2.70;;;;;;;;;;5053203;28;20495;-78
2022/07/19 09:15:40;;;;;;;4.10;2.60;;;;;;;;;;5053598;28;20444;-78
2022/07/19 09:18:08;;;;;;;3.00;2.80;;;;;;;;;;5053136;28;20467;-78
2022/07/19 09:20:36;;;;;;;3.37;2.60;;;;;;;;;;5054265;28;20481;-79
2022/07/19 09:23:04;;;;;;;3.50;3.20;;;;;;;;;;5054405;28;20496;-79
2022/07/19 09:25:37;;;;;;;3.07;2.87;;;;;;;;;;5054933;28;20503;-79
2022/07/19 09:28:05;;;;;;;2.50;2.20;;;;;;;;;;5054467;28;20446;-78
2022/07/19 09:30:37;;;;;;;2.50;2.30;;;;;;;;;;5055258;28;20568;-78
2022/07/19 09:33:14;;;;;;;3.53;3.23;;;;;;;;;;5052337;28;20561;-78
2022/07/19 09:35:44;;;;;;;4.40;2.67;;;;;;;;;;5054070;28;20449;-78
2022/07/19 09:38:21;;;;;;;5.13;2.60;;;;;;;;;;5055338;28;20949;-79
2022/07/19 09:40:49;;;;;;;3.00;2.70;;;;;;;;;;5055073;28;20477;-78
2022/07/19 09:43:16;;;;;;;3.27;2.97;;;;;;;;;;5054047;28;20491;-78
2022/07/19 09:45:44;;;;;;;3.30;2.40;;;;;;;;;;5054623;28;20444;-78
2022/07/19 09:48:11;;;;;;;3.30;3.00;;;;;;;;;;5054778;28;20481;-78
2022/07/19 09:50:38;;;;;;;3.30;3.00;;;;;;;;;;5051922;28;20446;-77
2022/07/19 09:53:07;;;;;;;3.00;2.73;;;;;;;;;;5045983;28;20466;-78
2022/07/19 09:55:34;;;;;;;2.87;2.67;;;;;;;;;;5048705;28;20513;-78
2022/07/19 09:58:04;;;;;;;5.20;2.70;;;;;;;;;;5032589;28;20442;-78
2022/07/19 10:00:31;;;;;;;3.03;2.57;;;;;;;;;;5033694;28;20474;-77
2022/07/19 10:02:59;;;;;;;3.20;2.87;;;;;;;;;;5034013;28;20474;-78
2022/07/19 10:05:27;;;;;;;3.13;2.93;;;;;;;;;;5035018;28;20557;-78
2022/07/19 10:07:54;;;;;;;3.13;2.70;;;;;;;;;;5033239;28;20442;-78
2022/07/19 10:10:24;;;;;;;4.70;2.70;;;;;;;;;;5046871;28;20447;-78
2022/07/19 10:12:52;;;;;;;3.30;3.00;;;;;;;;;;5051963;28;20980;-78
2022/07/19 10:15:19;;;;;;;3.50;3.20;;;;;;;;;;5051396;28;20453;-78
2022/07/19 10:17:52;;;;;;;4.40;3.13;;;;;;;;;;5053412;28;20446;-77
2022/07/19 10:20:21;;;;;;;3.80;3.07;;;;;;;;;;5051818;28;20517;-78
2022/07/19 10:22:49;;;;;;;4.73;3.80;;;;;;;;;;5046564;28;20482;-79
2022/07/19 10:25:17;;;;;;;3.20;2.90;;;;;;;;;;5046608;28;20469;-78
2022/07/19 10:27:47;;;;;;;2.70;2.50;;;;;;;;;;5053992;28;20470;-78
2022/07/19 10:30:19;;;;;;;3.30;3.03;;;;;;;;;;5054669;28;20517;-78
2022/07/19 10:32:47;;;;;;;3.00;2.80;;;;;;;;;;5055927;28;20799;-80
2022/07/19 10:35:18;;;;;;;4.13;2.77;;;;;;;;;;5055447;28;20467;-77
2022/07/19 10:37:46;;;;;;;4.43;3.40;;;;;;;;;;5052378;28;20445;-78
2022/07/19 10:40:13;;;;;;;3.10;2.90;;;;;;;;;;5050907;28;20469;-77
2022/07/19 10:42:55;;;;;;;3.97;2.93;;;;;;;;;;5050398;28;20879;-77
2022/07/19 10:45:23;;;;;;;3.73;2.90;;;;;;;;;;5050270;28;20491;-77
2022/07/19 10:48:00;;;;;;;3.13;2.83;;;;;;;;;;5049694;28;20442;-77
2022/07/19 10:50:43;;;;;;;2.90;2.57;;;;;;;;;;5049882;28;20948;-77
2022/07/19 10:53:10;;;;;;;3.63;2.80;;;;;;;;;;5049867;28;20515;-77
2022/07/19 10:55:37;;;;;;;4.37;3.30;;;;;;;;;;5050119;28;20449;-77
2022/07/19 10:58:11;;;;;;;3.00;2.80;;;;;;;;;;5050219;28;20539;-77
2022/07/19 11:00:47;;;;;;;3.53;3.20;;;;;;;;;;5050213;28;20530;-77
2022/07/19 11:03:30;;;;;;;3.30;2.87;;;;;;;;;;5049405;28;21007;-77
2022/07/19 11:05:58;;;;;;;4.30;3.17;;;;;;;;;;5049972;28;20964;-76
2022/07/19 11:08:34;;;;;;;6.53;2.97;;;;;;;;;;5049902;28;20445;-75
2022/07/19 11:11:05;;;;;;;2.90;2.80;;;;;;;;;;5029835;28;20492;-77
2022/07/19 11:13:32;;;;;;;3.03;2.83;;;;;;;;;;5029401;28;20463;-76
2022/07/19 11:16:02;;;;;;;3.00;2.80;;;;;;;;;;5030055;28;20445;-77
2022/07/19 11:18:29;;;;;;;3.50;3.20;;;;;;;;;;5029941;28;20453;-77
2022/07/19 11:20:58;;;;;;;2.80;2.60;;;;;;;;;;5029863;28;20532;-76
2022/07/19 11:23:25;;;;;;;3.47;2.77;;;;;;;;;;5029400;28;20470;-77
2022/07/19 11:25:52;;;;;;;4.53;2.87;;;;;;;;;;5030249;28;20492;-76
2022/07/19 11:28:22;;;;;;;2.80;2.60;;;;;;;;;;5033224;28;20446;-76
2022/07/19 11:30:49;;;;;;;3.17;2.87;;;;;;;;;;5033441;28;20569;-76
2022/07/19 11:33:19;;;;;;;5.70;2.83;;;;;;;;;;5032729;28;20480;-76
2022/07/19 11:35:56;;;;;;;2.73;2.53;;;;;;;;;;5033685;28;20438;-76
2022/07/19 11:38:24;;;;;;;5.07;3.30;;;;;;;;;;5033273;28;20538;-77
2022/07/19 11:40:51;;;;;;;2.90;2.70;;;;;;;;;;5033306;28;21001;-76
2022/07/19 11:43:18;;;;;;;3.10;2.80;;;;;;;;;;5033049;28;20465;-76
2022/07/19 11:45:46;;;;;;;2.97;2.60;;;;;;;;;;5033557;28;20476;-76
2022/07/19 11:48:13;;;;;;;3.47;3.00;;;;;;;;;;5033159;28;20441;-77
2022/07/19 11:50:41;;;;;;;2.90;2.50;;;;;;;;;;5033298;28;20824;-76
2022/07/19 11:53:09;;;;;;;3.03;2.70;;;;;;;;;;5032682;28;20548;-77
2022/07/19 11:55:37;;;;;;;5.87;2.60;;;;;;;;;;5032921;28;20537;-77
2022/07/19 11:58:07;;;;;;;5.00;3.00;;;;;;;;;;5033153;28;20517;-77
2022/07/19 12:00:35;;;;;;;3.10;2.73;;;;;;;;;;5032956;28;20448;-76
2022/07/19 12:03:04;;;;;;;2.20;2.10;;;;;;;;;;5032285;28;20474;-77
2022/07/19 12:05:32;;;;;;;3.37;3.07;;;;;;;;;;5032776;28;20452;-76
2022/07/19 12:08:02;;;;;;;4.80;3.07;;;;;;;;;;5033527;28;20517;-76
2022/07/19 12:10:43;;;;;;;3.63;2.73;;;;;;;;;;5048080;28;20932;-78
2022/07/19 12:13:11;;;;;;;4.23;2.87;;;;;;;;;;5052717;28;20522;-77
2022/07/19 12:15:52;;;;;;;5.03;2.80;;;;;;;;;;5052748;28;20451;-77
2022/07/19 12:18:20;;;;;;;3.30;3.00;;;;;;;;;;5047763;28;20452;-77
2022/07/19 12:21:07;;;;;;;8.00;3.30;;;;;;;;;;5053184;28;20498;-79
2022/07/19 12:23:36;;;;;;;3.97;3.13;;;;;;;;;;5045492;28;20519;-76
2022/07/19 12:26:04;;;;;;;3.40;3.10;;;;;;;;;;5052346;28;20936;-76
2022/07/19 12:28:31;;;;;;;6.20;3.40;;;;;;;;;;5051896;28;20528;-77
2022/07/19 12:31:02;;;;;;;4.90;3.37;;;;;;;;;;5052332;28;20449;-76
2022/07/19 12:33:29;;;;;;;2.87;2.67;;;;;;;;;;5052601;28;20473;-75
2022/07/19 12:35:56;;;;;;;3.70;2.80;;;;;;;;;;5052314;28;20886;-78
2022/07/19 12:38:28;;;;;;;2.83;2.63;;;;;;;;;;5044000;28;20498;-77
2022/07/19 12:41:05;;;;;;;3.17;2.90;;;;;;;;;;5053102;28;20483;-77
2022/07/19 12:43:32;;;;;;;4.03;2.83;;;;;;;;;;5052482;28;20526;-77
2022/07/19 12:46:01;;;;;;;4.03;3.07;;;;;;;;;;5053840;28;20498;-77
2022/07/19 12:48:28;;;;;;;5.43;3.10;;;;;;;;;;5052913;28;20908;-77
2022/07/19 12:50:55;;;;;;;5.83;3.07;;;;;;;;;;5053841;28;20889;-77
2022/07/19 12:53:22;;;;;;;3.30;3.10;;;;;;;;;;5053038;28;20518;-77
2022/07/19 12:55:50;;;;;;;4.03;3.00;;;;;;;;;;5054388;28;20444;-76
2022/07/19 13:01:00;;;;;;;4.03;3.00;;;;;;;;;;5051600;28;20441;-79
2022/07/19 13:03:27;;;;;;;3.40;2.80;;;;;;;;;;5050963;28;20480;-76
2022/07/19 13:08:40;;;;;;;3.60;3.10;;;;;;;;;;5046237;28;20437;-77
2022/07/19 13:11:27;;;;;;;3.50;3.03;;;;;;;;;;5051839;28;20787;-76
2022/07/19 13:20:22;;;;;;;4.40;2.90;;;;;;;;;;5051612;28;20556;-79
2022/07/19 13:22:49;;;;;;;3.80;3.50;;;;;;;;;;5051200;28;20488;-78
2022/07/19 13:25:16;;;;;;;3.30;3.10;;;;;;;;;;5051998;28;20437;-77
2022/07/19 13:27:43;;;;;;;3.40;3.00;;;;;;;;;;5052137;28;20441;-77
2022/07/19 13:30:11;;;;;;;3.50;3.00;;;;;;;;;;5052894;28;20437;-78
2022/07/19 13:32:38;;;;;;;3.37;3.13;;;;;;;;;;5051780;28;20469;-79
2022/07/19 13:35:05;;;;;;;3.73;3.10;;;;;;;;;;5052120;28;20452;-78
2022/07/19 13:37:34;;;;;;;3.40;3.07;;;;;;;;;;5051696;28;20448;-77
2022/07/19 13:40:01;;;;;;;3.53;3.20;;;;;;;;;;5051838;28;20449;-77
2022/07/19 13:42:28;;;;;;;3.33;3.03;;;;;;;;;;5051748;28;20480;-78
2022/07/19 13:44:55;;;;;;;4.63;3.27;;;;;;;;;;5053120;28;20445;-76
2022/07/19 13:47:22;;;;;;;6.13;3.27;;;;;;;;;;5053467;28;20491;-80
2022/07/19 13:49:49;;;;;;;3.10;2.90;;;;;;;;;;5051314;28;20456;-78
2022/07/19 13:52:16;;;;;;;3.03;2.80;;;;;;;;;;5051228;28;20500;-76
2022/07/19 13:54:44;;;;;;;3.40;3.20;;;;;;;;;;5054223;28;20475;-77
2022/07/19 13:57:11;;;;;;;4.33;2.90;;;;;;;;;;5051760;28;20445;-77
2022/07/19 13:59:38;;;;;;;4.70;3.30;;;;;;;;;;5051309;28;20445;-78
2022/07/19 14:02:05;;;;;;;5.03;2.97;;;;;;;;;;5051742;28;20480;-78
2022/07/19 14:04:32;;;;;;;2.83;2.70;;;;;;;;;;5051185;28;20461;-76
2022/07/19 14:06:59;;;;;;;4.00;3.07;;;;;;;;;;5051071;28;20452;-78
2022/07/19 14:09:26;;;;;;;6.40;3.20;;;;;;;;;;5044807;28;20522;-79
2022/07/19 14:11:55;;;;;;;3.00;2.80;;;;;;;;;;5032795;28;20499;-77
2022/07/19 14:14:22;;;;;;;6.60;2.83;;;;;;;;;;5031365;28;20496;-76
2022/07/19 14:16:49;;;;;;;4.40;3.30;;;;;;;;;;5030760;28;20449;-77
2022/07/19 14:19:16;;;;;;;3.70;3.13;;;;;;;;;;5031674;28;20588;-77
2022/07/19 14:21:43;;;;;;;4.43;2.70;;;;;;;;;;5031561;28;20478;-78
2022/07/19 14:24:10;;;;;;;6.20;2.87;;;;;;;;;;5031034;28;20473;-78
2022/07/19 14:26:37;;;;;;;4.50;3.17;;;;;;;;;;5030839;28;20584;-77
2022/07/19 14:29:06;;;;;;;2.83;2.60;;;;;;;;;;5031941;28;20445;-77
2022/07/19 14:31:33;;;;;;;5.03;2.90;;;;;;;;;;5031063;28;20446;-77
2022/07/19 14:34:00;;;;;;;5.60;2.87;;;;;;;;;;5030008;28;20994;-77
2022/07/19 14:36:27;;;;;;;3.13;2.87;;;;;;;;;;5032030;28;20491;-78
2022/07/19 14:38:54;;;;;;;5.07;2.80;;;;;;;;;;5034029;28;20496;-78
2022/07/19 14:41:21;;;;;;;3.30;2.97;;;;;;;;;;5033554;28;20993;-77
2022/07/19 14:43:48;;;;;;;4.90;3.20;;;;;;;;;;5032675;28;20535;-78
2022/07/19 14:46:16;;;;;;;3.37;2.87;;;;;;;;;;5031953;28;20442;-78
2022/07/19 14:48:43;;;;;;;2.80;2.60;;;;;;;;;;5032254;28;20450;-77
2022/07/19 14:51:10;;;;;;;4.53;2.80;;;;;;;;;;5032741;28;20496;-77
2022/07/19 14:53:37;;;;;;;5.23;3.17;;;;;;;;;;5032197;28;20464;-79
2022/07/19 14:56:04;;;;;;;3.30;2.70;;;;;;;;;;5030993;28;20459;-78
2022/07/19 14:58:31;;;;;;;3.37;2.80;;;;;;;;;;5032241;28;20503;-77
2022/07/19 15:00:58;;;;;;;4.47;2.83;;;;;;;;;;5033951;28;20460;-77
2022/07/19 15:03:27;;;;;;;6.37;3.17;;;;;;;;;;5034072;28;21001;-77